Date,TemperatureHighF,TemperatureAvgF,TemperatureLowF,DewpointHighF,DewpointAvgF,DewpointLowF,HumidityHigh,HumidityAvg,HumidityLow,PressureMaxIn,PressureMinIn,WindSpeedMaxMPH,WindSpeedAvgMPH,GustSpeedMaxMPH,PrecipitationSumIn
2013-1-14,82.9,72.6,66.9,65.0,63.8,61.5,89,75,50,29.93,29.88,9,2,12,0.12
2013-1-15,84.4,71.1,59.0,69.5,62.4,56.9,94,76,46,29.93,29.83,8,2,11,0.00
2013-1-16,83.8,70.1,58.6,66.9,60.0,56.6,93,73,43,29.88,29.77,8,1,11,0.08
2013-1-17,81.5,64.3,53.8,69.1,57.3,44.2,95,79,58,29.88,29.73,19,5,26,0.07
2013-1-18,68.5,54.9,41.2,59.8,47.5,34.7,90,77,60,30.04,29.87,15,3,26,0.05
2013-1-19,76.5,65.7,56.5,61.8,57.5,52.4,87,76,57,30.03,29.90,14,3,17,0.00
2013-1-20,77.2,65.7,59.9,63.3,59.0,53.7,91,79,62,29.94,29.81,8,2,13,0.00
2013-1-21,77.7,66.3,60.6,64.0,59.5,55.3,91,79,61,29.87,29.76,5,1,8,0.07
2013-1-22,69.1,59.1,46.2,58.2,45.3,35.7,91,63,30,30.05,29.83,10,2,15,0.00
2013-1-23,75.4,56.9,43.7,45.4,38.1,27.1,88,57,18,30.13,30.03,7,1,10,0.00
2013-1-24,78.3,58.1,41.0,50.3,45.3,39.1,94,68,32,30.10,29.99,7,1,11,0.00
2013-1-25,78.1,60.5,45.9,61.0,48.9,44.2,95,70,35,30.08,29.94,8,1,12,0.00
2013-1-26,80.1,60.9,44.1,57.7,49.7,42.0,94,71,36,30.05,29.93,8,1,11,0.00
2013-1-27,81.5,64.3,47.8,63.3,54.5,46.5,95,74,38,30.08,29.99,9,2,12,0.00
2013-1-28,78.8,70.2,63.1,66.0,63.8,60.5,93,81,62,30.11,30.00,11,3,15,0.01
2013-1-29,84.7,72.2,64.8,71.0,65.6,63.1,96,81,51,30.03,29.87,11,4,14,0.00
2013-1-30,85.5,73.3,63.3,66.2,63.3,60.1,95,73,43,29.89,29.68,17,6,22,0.01
2013-1-31,70.7,60.7,45.5,66.0,45.1,25.5,92,62,21,30.00,29.68,21,3,23,0.08
2013-2-1,73.8,55.0,41.9,38.9,30.5,14.4,80,47,11,30.12,29.99,8,1,11,0.00
2013-2-2,76.1,57.2,38.5,46.0,40.2,33.5,82,58,25,30.06,29.91,8,1,14,0.00
2013-2-3,74.3,56.8,42.1,50.4,42.2,36.7,85,61,34,29.96,29.83,12,2,17,0.07
2013-2-4,73.8,53.9,37.9,52.4,38.7,28.1,94,64,20,29.91,29.80,11,1,17,0.00
2013-2-5,78.1,59.0,39.4,53.2,45.8,37.0,93,66,34,29.87,29.76,12,1,17,0.00
2013-2-6,79.2,67.0,54.0,62.4,56.8,50.5,91,72,46,29.89,29.79,10,2,15,0.00
2013-2-7,81.0,72.1,63.9,64.4,61.0,55.4,87,70,47,29.85,29.63,14,6,20,0.00
2013-2-8,83.7,71.0,58.3,64.2,58.1,49.2,91,67,33,29.92,29.64,11,4,16,0.00
2013-2-9,77.2,64.1,54.5,56.9,54.1,51.7,95,73,42,29.97,29.84,10,3,15,0.00
2013-2-10,79.5,67.8,59.0,58.5,56.5,53.7,85,69,46,30.04,29.93,13,4,17,0.00
2013-2-11,61.3,60.4,57.6,57.1,56.1,54.5,90,86,82,29.97,29.92,3,1,5,0.00
2013-2-12,85.3,75.9,70.2,67.2,64.1,60.6,90,68,45,29.74,29.70,8,4,11,0.07
2013-2-13,87.6,74.2,63.9,70.6,65.5,57.1,93,76,45,29.75,29.60,16,6,26,0.27
2013-2-14,66.0,62.8,60.3,61.2,59.1,57.2,95,88,79,29.81,29.70,7,1,10,0.39
2013-2-15,72.7,60.8,55.8,59.0,56.0,53.7,97,85,57,29.85,29.72,6,2,9,0.07
2013-2-16,70.7,57.7,48.4,54.1,45.0,26.6,94,66,33,29.89,29.67,21,5,29,0.15
2013-2-17,56.1,46.9,34.3,29.6,19.2,10.9,78,37,18,30.10,29.88,11,4,19,0.00
2013-2-18,70.9,50.9,30.6,47.9,37.2,26.9,90,63,34,30.12,29.98,14,3,27,0.00
2013-2-19,79.9,61.9,44.8,56.1,49.5,42.7,94,68,39,29.98,29.83,14,3,21,0.41
2013-2-20,79.5,65.5,54.5,63.5,56.7,51.3,94,75,50,29.90,29.78,7,2,11,0.00
2013-2-21,84.7,70.7,59.9,65.4,59.2,54.4,88,69,42,29.88,29.76,10,3,14,0.00
2013-2-22,86.4,73.7,59.4,69.4,63.9,57.3,95,74,43,29.86,29.75,15,4,20,0.00
2013-2-23,88.7,76.5,69.4,70.2,66.1,61.1,93,73,41,29.79,29.65,16,5,24,0.02
2013-2-24,81.1,72.5,67.1,70.6,67.5,64.4,94,85,64,29.74,29.65,10,3,13,0.00
2013-2-25,87.6,73.7,63.5,72.4,63.7,59.3,96,74,41,29.70,29.53,13,2,17,0.00
2013-2-26,79.0,72.1,63.3,72.7,67.3,60.8,92,85,73,29.65,29.51,18,5,24,0.13
2013-2-27,77.9,66.3,56.1,62.8,55.8,49.7,96,72,38,29.74,29.64,10,3,14,0.01
2013-2-28,75.7,63.9,48.2,55.0,47.4,42.4,94,60,33,29.77,29.65,14,4,20,0.00
2013-3-1,71.1,60.6,46.9,46.7,40.3,31.1,88,49,30,29.77,29.66,12,5,18,0.00
2013-3-2,61.3,51.6,40.6,41.7,34.9,26.8,81,55,29,29.80,29.72,20,5,27,0.05
2013-3-3,56.5,44.8,33.4,36.9,31.7,28.0,83,62,38,29.93,29.75,21,5,30,0.09
2013-3-4,68.2,49.2,30.9,37.7,27.1,15.6,89,51,14,30.00,29.88,9,2,13,0.00
2013-3-5,78.3,58.9,37.8,56.7,43.4,34.4,92,62,27,29.94,29.79,15,4,18,0.00
2013-3-6,69.3,59.7,45.0,61.7,38.6,15.6,91,53,14,29.90,29.71,21,7,28,0.09
2013-3-7,70.2,53.0,39.0,45.2,37.5,32.0,86,59,31,29.98,29.87,12,2,17,0.00
2013-3-8,77.4,57.7,38.8,50.9,40.2,28.3,95,61,17,29.99,29.88,9,2,11,0.00
2013-3-9,76.8,60.3,42.4,53.9,47.5,40.8,94,66,36,30.00,29.90,9,2,14,0.00
2013-3-10,78.8,65.8,53.2,58.8,53.3,50.4,93,67,40,29.95,29.84,13,4,21,0.00
2013-3-11,78.8,68.1,53.8,59.8,55.9,50.9,92,67,44,29.89,29.67,19,5,27,0.00
2013-3-12,72.0,66.8,56.3,66.9,61.6,53.3,94,84,70,29.79,29.65,14,6,21,0.20
2013-3-13,76.8,61.5,48.9,53.2,41.3,26.3,94,56,16,30.03,29.67,11,3,17,0.09
2013-3-14,69.6,56.4,45.5,44.2,33.6,20.4,83,48,18,30.11,30.00,11,3,17,0.00
2013-3-15,72.9,55.2,37.0,47.6,36.0,25.1,94,57,20,30.14,30.00,9,2,12,0.00
2013-3-16,80.1,58.9,40.3,49.5,41.9,35.6,93,57,22,30.05,29.90,11,2,17,0.00
2013-3-17,79.5,65.3,45.5,58.3,49.0,41.9,93,57,40,30.05,29.85,14,3,17,0.00
2013-3-18,79.3,70.4,61.2,65.5,61.8,57.5,90,75,55,29.92,29.73,17,4,23,0.00
2013-3-19,87.6,72.4,61.9,67.8,62.5,59.5,96,75,40,29.86,29.74,9,2,11,0.09
2013-3-20,77.0,69.3,60.6,67.6,62.7,56.1,93,80,56,29.82,29.65,13,3,18,0.02
2013-3-21,74.1,61.2,49.5,57.8,40.0,18.5,96,55,13,29.83,29.72,8,2,13,0.00
2013-3-22,78.8,60.1,41.7,64.1,49.0,36.3,93,71,30,29.87,29.74,11,2,15,0.08
2013-3-23,88.7,74.2,63.1,72.6,65.8,60.7,96,77,45,29.84,29.63,18,4,25,0.01
2013-3-24,83.7,74.3,66.2,73.8,68.7,61.0,93,83,61,29.71,29.48,21,6,29,0.70
2013-3-25,75.6,65.6,50.4,67.8,43.6,16.8,91,53,13,29.89,29.58,14,6,21,0.00
2013-3-26,61.7,53.1,44.2,42.7,30.0,18.0,73,44,20,30.08,29.88,21,6,27,0.04
2013-3-27,65.8,50.7,35.2,36.9,30.9,21.0,88,52,20,30.16,30.04,12,3,16,0.00
2013-3-28,73.4,54.9,34.9,46.1,31.7,16.1,93,53,12,30.14,30.03,10,2,12,0.00
2013-3-29,75.4,58.6,40.6,52.5,37.9,26.3,93,55,18,30.18,30.04,10,2,14,0.00
2013-3-30,71.2,57.3,44.2,53.5,46.6,40.8,91,70,49,30.11,30.06,12,2,14,0.00
2013-3-31,83.3,70.0,57.0,56.9,52.8,47.6,83,57,32,30.03,29.85,22,3,37,0.06
2013-4-1,85.8,70.1,44.1,62.7,55.9,35.2,83,61,44,30.24,29.86,16,2,20,0.06
2013-4-2,86.7,71.6,57.9,65.1,58.1,52.1,95,67,32,30.06,29.96,10,2,14,0.00
2013-4-3,86.4,73.8,61.3,67.6,62.7,57.0,91,71,43,30.05,29.91,15,5,21,0.26
2013-4-4,72.3,70.2,67.3,68.7,66.1,62.3,93,87,73,30.00,29.83,24,6,32,0.26
2013-4-5,77.7,69.0,64.0,69.9,63.0,54.5,94,83,47,29.90,29.77,12,3,14,0.13
2013-4-6,79.7,66.3,53.4,59.0,55.4,51.0,93,71,42,30.10,29.94,14,4,17,0.00
2013-4-7,63.5,61.7,59.0,58.2,57.8,57.0,93,87,82,30.08,30.02,6,1,8,0.00
2013-4-8,85.8,81.1,59.0,62.1,60.6,56.1,93,51,42,30.10,29.92,11,6,14,0.00
2013-4-9,85.8,74.1,61.7,67.8,61.2,56.4,94,66,44,30.13,29.92,14,4,18,0.00
2013-4-10,88.3,73.7,56.5,70.1,62.9,54.8,95,72,40,30.10,29.94,12,4,17,0.00
2013-4-11,89.6,79.0,70.7,71.8,69.1,64.9,93,74,46,29.98,29.79,16,7,21,0.01
2013-4-12,81.1,78.4,74.3,73.1,72.0,70.1,92,81,73,29.87,29.84,17,10,23,0.00
2013-4-13,88.2,77.6,44.1,72.1,61.6,20.9,76,60,19,30.23,29.84,14,5,23,1.44
2013-4-14,89.6,77.1,67.5,73.4,68.4,60.2,83,75,53,30.09,29.78,16,4,23,0.17
2013-4-15,90.1,76.2,64.8,68.6,64.4,60.2,89,69,43,30.04,29.89,9,3,13,0.00
2013-4-16,88.2,77.6,68.7,72.7,67.5,65.1,92,73,50,30.11,30.00,12,4,17,0.00
2013-4-17,86.5,74.9,64.0,71.4,64.7,61.9,95,73,46,30.11,29.99,11,3,17,0.00
2013-4-18,90.9,77.0,63.3,71.4,65.9,61.3,95,71,42,30.03,29.91,12,3,15,0.00
2013-4-19,91.6,80.1,70.9,73.2,68.8,62.6,93,71,41,29.98,29.86,18,6,23,0.00
2013-4-20,78.1,70.7,62.4,69.7,64.1,56.7,93,80,61,30.11,29.92,11,4,14,0.00
2013-4-21,82.4,69.8,62.2,71.7,64.8,56.4,94,84,66,30.11,29.97,10,2,16,0.26
2013-4-22,81.9,71.7,67.6,70.4,66.9,63.3,96,85,59,30.04,29.93,14,3,17,0.37
2013-4-23,82.6,72.3,63.3,66.4,61.5,56.2,95,71,42,30.08,29.92,11,4,18,0.00
2013-4-24,87.4,72.1,55.8,65.8,60.0,54.4,96,69,40,30.11,30.02,11,3,17,0.00
2013-4-25,87.8,74.2,59.5,68.3,60.6,56.9,94,66,37,30.17,30.06,10,2,17,0.00
2013-4-26,88.7,75.3,61.2,68.0,62.4,58.8,93,67,40,30.20,30.11,11,2,14,0.00
2013-4-27,84.6,75.0,64.6,71.5,65.0,60.5,94,73,50,30.19,30.06,14,3,20,0.00
2013-4-28,87.3,75.2,64.8,66.4,62.1,56.1,91,66,37,30.10,29.95,15,5,21,0.00
2013-4-29,87.6,74.8,62.4,69.0,63.4,60.0,93,70,42,30.00,29.85,19,4,25,0.25
2013-4-30,89.8,74.4,67.6,70.2,67.1,63.5,94,80,42,29.98,29.86,18,2,24,0.63
2013-5-1,77.2,72.4,68.9,72.3,68.9,67.1,95,89,81,29.98,29.89,6,2,9,0.27
2013-5-2,78.6,70.0,65.3,71.3,66.9,62.7,95,90,75,29.92,29.92,9,2,13,1.00
2013-5-3,84.4,72.4,63.9,71.8,66.9,62.7,97,84,54,29.92,29.92,10,3,14,0.07
2013-5-4,84.4,74.2,68.4,69.8,66.7,62.7,96,79,49,29.92,29.92,12,4,17,0.00
2013-5-5,80.6,70.5,60.3,66.4,53.0,40.2,91,59,28,29.92,29.92,14,5,19,0.00
2013-5-6,80.2,68.7,58.5,62.5,55.0,51.0,91,65,39,29.92,29.92,14,4,20,0.00
2013-5-7,81.0,67.3,52.7,59.0,54.3,50.2,94,66,40,29.92,29.92,14,4,19,0.00
2013-5-8,84.2,70.8,57.6,64.2,57.5,54.1,94,66,39,29.92,29.92,11,3,15,0.00
2013-5-9,87.3,72.8,55.9,66.0,59.3,54.2,95,67,37,29.92,29.92,9,2,17,0.00
2013-5-10,90.1,77.4,62.2,71.9,65.8,59.9,94,70,43,29.92,29.92,14,3,17,0.00
2013-5-11,90.7,77.8,67.6,73.0,68.1,63.9,94,74,43,29.92,29.92,16,3,25,0.00
2013-5-12,90.1,77.8,68.4,75.1,66.9,63.2,96,72,44,29.92,29.92,14,3,18,0.00
2013-5-13,85.1,74.0,64.6,67.7,60.8,52.8,95,67,34,29.92,29.92,11,2,21,0.00
2013-5-14,84.6,71.0,54.5,61.5,53.7,41.3,95,60,25,29.92,29.92,9,3,14,0.00
2013-5-15,86.2,72.5,55.9,65.3,57.5,52.2,94,63,34,29.92,29.92,11,3,16,0.00
2013-5-16,87.6,75.2,61.9,65.4,60.7,55.2,92,64,35,29.92,29.92,13,3,16,0.00
2013-5-17,89.4,76.4,62.1,68.1,63.3,59.1,92,67,40,29.92,29.92,11,3,15,0.00
2013-5-18,93.2,79.1,65.1,72.3,67.0,61.6,94,70,37,29.92,29.92,12,3,15,0.00
2013-5-19,91.2,79.2,72.0,72.2,69.1,62.8,92,73,40,29.92,29.92,14,4,20,0.00
2013-5-20,92.1,77.6,69.6,72.5,68.0,62.4,93,75,39,29.92,29.92,20,3,29,0.92
2013-5-21,87.4,74.3,68.7,74.0,69.5,65.8,95,86,52,29.92,29.92,19,2,27,0.67
2013-5-22,88.3,75.8,67.8,73.9,69.8,64.5,95,83,46,29.92,29.92,14,2,19,0.59
2013-5-23,92.7,78.8,68.7,74.9,68.8,64.8,96,74,44,29.92,29.92,11,2,14,0.01
2013-5-24,94.6,80.8,68.2,74.4,66.5,58.2,94,66,31,29.92,29.92,12,2,16,0.00
2013-5-25,87.8,78.9,70.9,72.4,64.5,58.1,89,63,41,29.92,29.92,14,4,18,0.00
2013-5-26,86.4,74.1,59.4,66.6,59.9,55.2,93,64,35,29.92,29.92,11,3,16,0.00
2013-5-27,87.1,74.7,60.6,69.6,62.4,58.8,95,68,41,29.92,29.92,12,4,17,0.00
2013-5-28,87.6,77.4,68.7,72.6,69.2,64.9,92,77,57,29.92,29.92,16,5,21,0.00
2013-5-29,85.5,76.9,71.1,73.4,70.9,68.2,93,82,60,29.92,29.92,14,5,21,0.05
2013-5-30,86.4,78.5,73.6,73.9,70.8,65.3,93,78,54,29.92,29.92,17,6,24,0.02
2013-5-31,86.4,78.9,72.9,73.9,70.1,68.1,87,75,58,29.92,29.92,14,6,23,0.02
2013-6-1,90.5,80.4,74.1,73.8,72.2,70.7,91,77,54,29.92,29.92,13,4,17,0.00
2013-6-2,94.8,81.2,74.1,75.7,73.0,68.7,95,78,44,29.92,29.92,14,3,22,0.05
2013-6-3,90.1,79.6,73.8,75.3,73.0,70.0,95,81,53,29.92,29.92,12,3,17,0.12
2013-6-4,85.1,78.2,72.3,73.4,71.3,66.3,93,80,61,29.92,29.92,14,3,20,0.46
2013-6-5,83.7,75.5,72.0,75.0,72.3,68.4,93,90,68,29.92,29.92,18,2,27,0.80
2013-6-6,80.1,75.8,73.8,75.6,73.0,69.4,94,91,80,29.92,29.92,21,8,28,2.30
2013-6-7,87.3,80.9,72.5,74.3,72.7,70.7,95,77,60,29.92,29.92,11,5,14,0.00
2013-6-8,86.4,83.3,73.0,73.3,72.8,65.6,95,72,65,29.92,29.92,5,4,8,0.77
2013-6-9,90.5,79.8,71.6,76.8,72.7,69.3,96,80,51,29.92,29.92,15,3,19,0.01
2013-6-10,92.5,81.5,73.6,76.1,73.0,68.5,95,77,48,29.92,29.92,12,3,14,0.00
2013-6-11,92.1,79.2,72.1,78.0,73.3,68.5,95,83,51,29.92,29.92,8,2,13,0.26
2013-6-12,95.2,81.4,69.6,76.0,71.1,68.0,97,74,42,29.92,29.92,8,2,14,0.00
2013-6-13,94.1,81.6,72.1,76.5,72.6,69.4,92,76,47,29.92,29.92,11,2,16,0.06
2013-6-14,92.8,82.7,73.9,76.4,71.5,24.4,96,71,46,29.92,29.92,172,4,172,0.32
2013-6-15,90.0,80.4,74.3,79.2,74.5,71.1,94,83,61,29.92,29.92,11,2,17,0.05
2013-6-16,92.5,83.4,76.5,76.6,74.3,71.0,93,75,53,29.92,29.92,11,4,17,0.00
2013-6-17,91.9,83.3,74.3,79.0,75.2,70.3,95,78,51,29.92,29.92,16,3,20,0.85
2013-6-18,95.4,82.3,72.7,77.1,72.5,68.8,95,74,44,29.92,29.92,10,2,14,0.04
2013-6-19,93.9,82.4,73.2,75.7,72.7,68.6,93,74,47,29.92,29.92,18,3,26,0.12
2013-6-20,94.5,79.4,72.0,75.5,72.0,64.5,94,80,46,29.92,29.92,34,2,41,2.82
2013-6-21,90.3,76.4,70.5,75.8,71.6,68.3,97,86,52,29.92,29.92,23,2,30,0.72
2013-6-22,92.8,81.3,71.2,77.5,70.7,61.0,97,73,41,29.92,29.92,9,2,11,0.00
2013-6-23,90.5,79.8,73.4,76.1,73.4,70.5,95,82,54,29.92,29.92,12,2,21,0.00
2013-6-24,91.6,82.3,74.5,75.6,72.7,66.9,94,74,46,29.92,29.92,11,4,17,0.00
2013-6-25,92.7,83.0,73.6,75.9,71.9,66.1,95,72,43,29.92,29.92,11,3,14,0.00
2013-6-26,93.6,79.5,72.5,76.9,73.2,70.6,95,83,49,29.92,29.92,21,3,28,0.78
2013-6-27,94.1,81.2,71.1,76.6,71.6,66.4,97,75,42,29.92,29.92,9,2,13,0.01
2013-6-28,93.0,80.2,74.3,75.9,73.0,68.5,93,80,51,29.92,29.92,12,3,18,0.13
2013-6-29,89.8,79.9,75.6,77.1,74.0,67.6,95,83,52,29.92,29.92,17,4,26,0.01
2013-6-30,88.9,77.9,74.3,76.9,73.7,69.7,95,88,61,29.92,29.92,15,4,21,0.28
2013-7-1,84.6,75.8,73.4,76.3,72.4,68.8,96,89,74,29.92,29.92,24,5,34,0.67
2013-7-2,84.2,76.7,73.6,76.0,73.3,71.5,96,89,70,29.92,29.92,12,3,17,0.26
2013-7-3,89.1,78.5,72.5,76.6,73.7,71.1,97,86,62,29.92,29.92,16,4,21,0.28
2013-7-4,88.7,79.5,72.0,76.6,73.0,66.5,96,82,55,29.92,29.92,23,4,27,0.04
2013-7-5,89.8,80.9,74.8,76.7,73.9,70.3,95,80,55,29.92,29.92,17,4,22,0.02
2013-7-6,90.3,81.8,74.7,75.2,73.0,68.8,94,76,50,29.92,29.92,14,5,17,0.00
2013-7-7,90.5,82.8,75.0,75.9,72.8,67.5,93,74,49,29.92,29.92,14,4,19,0.00
2013-7-8,91.6,83.1,75.6,76.9,72.6,66.2,94,73,46,29.92,29.92,11,3,17,0.00
2013-7-9,92.1,81.0,72.7,77.5,72.6,65.7,96,77,43,29.92,29.92,12,3,17,0.17
2013-7-10,90.1,80.9,72.7,77.6,72.1,68.0,96,76,49,29.92,29.92,13,3,16,0.01
2013-7-11,93.0,79.9,73.9,75.3,72.9,66.0,94,81,44,29.92,29.92,14,3,21,0.70
2013-7-12,88.9,78.4,72.3,76.8,73.5,70.2,96,85,59,29.92,29.92,16,2,22,0.38
2013-7-13,90.0,77.8,71.8,74.6,72.4,68.9,96,85,51,29.92,29.92,14,2,21,0.37
2013-7-14,90.0,77.5,72.7,75.3,73.0,71.2,96,87,58,29.92,29.92,14,4,20,0.00
2013-7-15,88.2,78.3,71.8,75.1,72.5,67.0,96,83,53,29.92,29.92,11,2,17,0.00
2013-7-16,89.2,78.3,73.6,75.1,72.7,69.2,95,84,53,29.92,29.92,22,3,28,0.50
2013-7-17,89.4,79.3,73.8,76.5,73.2,68.6,96,83,54,29.92,29.92,19,3,26,0.26
2013-7-18,86.2,76.7,73.0,77.3,72.7,70.3,96,88,62,29.92,29.92,14,2,18,1.28
2013-7-19,89.1,78.3,72.5,75.5,72.6,70.3,97,84,57,29.92,29.92,12,3,14,0.67
2013-7-20,91.0,78.5,73.6,78.6,73.4,71.1,96,85,55,29.92,29.92,16,2,23,0.79
2013-7-21,93.4,79.4,73.0,78.0,73.1,67.5,95,83,50,29.92,29.92,13,2,17,0.27
2013-7-22,93.6,80.6,73.8,77.1,72.7,67.6,95,78,47,29.92,29.92,13,2,16,0.00
2013-7-23,89.2,79.2,74.5,78.0,73.5,70.9,95,83,60,29.92,29.92,16,3,21,0.31
2013-7-24,88.7,80.5,75.0,77.3,74.7,71.5,93,83,64,29.92,29.92,17,3,26,0.50
2013-7-25,86.7,80.0,75.7,77.3,74.9,72.7,93,85,67,29.92,29.92,11,3,14,0.52
2013-7-26,94.8,82.3,74.8,77.1,73.8,69.6,96,78,46,29.92,29.92,9,2,14,0.01
2013-7-27,92.8,81.6,73.4,78.1,74.2,71.6,96,80,55,29.92,29.92,11,2,17,0.13
2013-7-28,92.7,79.4,73.2,78.0,72.6,67.9,96,82,46,29.92,29.92,16,2,22,0.13
2013-7-29,93.6,81.9,73.2,77.5,73.2,66.8,96,77,43,29.92,29.92,17,2,21,0.01
2013-7-30,94.1,83.1,74.1,78.0,73.9,69.4,95,75,50,29.92,29.92,13,3,17,0.00
2013-7-31,92.5,82.9,76.1,78.9,74.0,67.4,94,76,49,29.92,29.92,15,2,20,0.00
2013-8-1,93.4,81.8,74.7,77.9,72.8,66.2,95,76,44,29.92,29.92,14,2,19,0.04
2013-8-2,95.0,82.6,73.6,78.4,72.8,67.6,96,75,43,29.92,29.92,10,2,13,0.00
2013-8-3,93.7,80.4,75.7,78.4,73.9,70.0,94,82,48,29.92,29.92,17,3,27,0.01
2013-8-4,91.8,81.5,75.0,79.0,75.0,71.8,96,82,55,29.92,29.92,19,2,27,0.18
2013-8-5,94.5,81.5,75.0,79.6,75.0,71.1,95,82,51,29.92,29.92,11,2,18,1.80
2013-8-6,94.8,82.8,74.5,78.9,74.7,70.8,97,78,48,29.92,29.92,8,1,14,0.00
2013-8-7,93.4,82.8,76.8,79.2,75.3,72.6,94,79,53,29.92,29.92,18,2,21,0.00
2013-8-8,93.9,83.8,76.8,78.0,74.2,70.3,93,75,48,29.92,29.92,12,4,16,0.00
2013-8-9,91.4,81.2,75.6,77.7,74.1,70.1,94,80,53,29.92,29.92,17,2,23,0.24
2013-8-10,94.5,83.6,74.1,78.0,73.1,68.8,95,73,45,29.92,29.92,11,4,16,0.01
2013-8-11,95.9,84.0,74.8,78.9,73.8,68.9,95,74,44,29.92,29.92,11,3,14,0.00
2013-8-12,94.8,83.6,74.1,76.9,72.0,66.9,95,71,45,29.92,29.92,9,2,13,0.00
2013-8-13,96.3,84.7,73.0,77.3,72.5,68.1,96,70,42,29.92,29.92,12,2,16,0.00
2013-8-14,95.0,82.4,76.3,78.5,74.4,70.0,94,79,48,29.92,29.92,11,2,14,0.25
2013-8-15,92.5,82.0,74.1,77.9,74.4,71.0,96,79,52,29.92,29.92,11,2,14,0.04
2013-8-16,92.7,83.3,77.5,77.0,74.5,69.7,93,76,50,30.01,29.92,9,2,12,0.01
2013-8-17,93.4,82.3,77.7,79.4,75.5,70.9,92,81,50,30.01,30.01,23,2,32,0.76
2013-8-18,89.8,81.4,76.5,77.7,75.1,72.0,94,82,59,30.01,30.01,13,3,17,0.06
2013-8-19,91.2,80.4,73.8,81.3,74.6,19.3,97,84,10,30.01,30.01,10,2,15,0.06
2013-8-20,92.5,81.5,73.8,78.6,74.3,71.1,96,80,50,30.01,30.01,14,2,21,0.45
2013-8-21,91.4,82.2,78.1,77.1,75.4,72.8,92,81,58,30.01,30.01,11,3,17,0.19
2013-8-22,90.5,81.1,75.9,79.2,75.0,72.2,94,83,59,30.01,30.01,11,2,17,0.05
2013-8-23,92.5,81.4,77.0,80.3,75.5,71.7,94,83,52,30.01,30.01,17,1,25,0.85
2013-8-24,92.1,79.6,74.7,80.6,74.5,71.3,97,85,51,30.01,30.01,15,1,25,0.37
2013-8-25,88.9,81.2,74.5,77.3,74.6,72.2,97,81,61,30.01,30.01,11,2,18,0.01
2013-8-26,85.1,83.6,74.7,75.1,74.7,71.4,92,75,72,30.01,30.01,9,3,14,0.20
2013-8-27,90.0,80.7,72.7,76.5,70.2,65.3,96,73,45,30.01,30.01,11,3,16,0.01
2013-8-28,91.9,80.3,70.7,76.2,69.3,62.3,95,72,40,30.01,30.01,12,2,17,0.00
2013-8-29,92.3,83.2,73.2,74.6,70.7,63.0,93,68,40,30.01,30.01,10,1,11,0.00
2013-8-30,94.6,81.5,73.9,76.5,72.7,68.1,95,77,44,30.01,30.01,18,2,24,0.13
2013-8-31,93.9,81.6,72.5,76.2,71.9,68.4,95,74,45,30.01,30.01,16,3,21,0.11
2013-9-1,93.0,79.7,72.7,76.0,71.7,68.4,94,79,46,30.01,30.01,18,2,24,0.58
2013-9-2,93.7,79.6,72.0,76.0,72.8,65.0,96,81,45,30.01,30.01,13,2,19,0.53
2013-9-3,90.7,79.4,72.3,79.4,73.9,70.5,96,84,60,30.01,30.01,12,2,15,0.07
2013-9-4,93.0,79.1,72.3,78.1,73.1,67.3,96,83,54,30.01,30.01,20,1,28,0.18
2013-9-5,93.6,80.9,73.2,78.5,73.2,69.2,95,79,53,30.01,30.01,11,2,15,0.02
2013-9-6,87.3,80.3,73.8,80.5,74.9,72.1,96,85,71,30.01,30.01,4,0,7,0.56
2013-9-7,90.9,78.5,72.3,77.3,72.8,69.2,97,84,54,30.01,30.01,7,1,10,0.01
2013-9-8,91.6,83.5,72.1,76.8,70.1,66.3,96,68,45,30.01,30.01,10,2,15,0.00
2013-9-9,91.8,88.6,77.7,73.7,68.8,63.4,86,53,40,30.01,30.01,10,4,20,0.00
2013-9-10,90.5,82.0,74.5,75.7,71.0,63.5,95,72,41,30.01,30.01,14,3,18,0.00
2013-9-11,91.6,82.2,73.6,75.5,70.9,64.7,94,72,42,30.01,30.01,13,3,17,0.00
2013-9-12,91.2,78.9,73.2,77.8,73.1,69.1,96,84,52,30.01,30.01,15,1,19,0.09
2013-9-13,91.8,80.8,71.6,76.4,72.3,68.9,97,77,50,30.01,30.01,7,1,8,0.01
2013-9-14,94.3,82.4,73.4,76.1,73.0,68.0,96,75,44,30.01,30.01,11,1,15,0.00
2013-9-15,91.2,82.3,75.7,78.0,74.5,72.7,93,79,58,30.01,30.01,11,3,17,0.24
2013-9-16,91.4,79.1,71.6,77.1,72.6,69.6,97,82,49,30.01,30.01,14,2,18,0.01
2013-9-17,88.5,78.9,72.9,77.8,72.9,70.4,96,83,58,30.01,30.01,13,2,21,0.52
2013-9-18,91.4,80.5,73.6,75.9,74.1,70.5,94,81,52,30.01,30.01,11,5,17,0.17
2013-9-19,80.4,80.4,80.4,75.2,75.2,75.2,84,84,84,30.01,30.01,7,7,12,0.00
2013-9-20,80.4,80.4,80.4,75.2,75.2,75.2,84,84,84,30.01,30.01,7,7,12,0.00
2013-9-21,80.4,80.1,76.3,75.2,74.7,70.0,85,83,73,30.01,30.01,7,6,12,0.64
2013-9-22,91.9,79.4,74.1,75.5,72.4,69.2,93,81,52,30.01,30.01,14,2,23,0.00
2013-9-23,88.2,77.0,73.0,77.1,74.0,71.6,97,91,66,30.01,30.01,11,2,14,2.15
2013-9-24,84.9,77.7,74.8,75.6,73.9,72.1,96,88,67,30.01,30.01,11,3,18,0.02
2013-9-25,83.5,76.7,73.8,74.8,72.0,69.3,95,86,64,30.01,30.01,14,4,18,0.12
2013-9-26,91.4,80.9,74.1,78.4,71.6,56.0,96,77,31,30.01,30.01,11,3,17,0.02
2013-9-27,84.9,75.8,69.1,73.6,70.0,67.7,97,83,61,30.01,30.01,11,2,18,0.00
2013-9-28,86.2,76.3,70.9,75.7,70.9,68.2,96,84,62,30.01,30.01,12,2,18,0.19
2013-9-29,88.2,76.8,69.3,73.1,68.1,63.2,95,77,45,30.01,30.01,11,1,15,0.00
2013-9-30,90.0,78.3,68.4,75.3,68.5,60.5,97,75,40,30.01,30.01,6,1,9,0.09
2013-10-1,88.7,82.0,71.1,76.0,70.2,66.3,96,70,49,30.01,30.01,8,2,11,0.01
2013-10-2,88.2,88.2,88.2,69.5,69.5,69.5,54,54,54,30.01,30.01,2,2,7,0.00
2013-10-3,88.2,87.0,76.1,71.8,69.7,69.5,86,57,54,30.01,30.01,8,2,12,0.00
2013-10-4,90.1,79.4,69.8,76.1,70.1,65.2,96,76,45,30.01,30.01,8,2,11,0.00
2013-10-5,89.8,78.8,69.8,75.5,70.6,67.4,96,78,52,30.01,30.01,10,2,15,0.07
2013-10-6,91.8,79.3,70.2,77.8,71.2,67.7,96,78,46,30.01,30.01,14,2,19,0.00
2013-10-7,85.8,77.2,72.9,76.5,72.6,69.5,95,86,67,30.01,30.01,17,3,24,0.21
2013-10-8,89.1,79.0,74.8,77.1,73.5,69.6,95,84,54,30.01,30.01,13,2,18,0.18
2013-10-9,83.5,75.4,68.2,71.3,68.4,65.5,91,80,60,30.01,30.01,9,3,15,0.02
2013-10-10,86.7,74.9,64.8,68.2,65.8,63.6,97,76,48,30.01,30.01,8,2,14,0.01
2013-10-11,88.5,75.2,62.6,71.1,63.9,59.8,97,72,40,30.01,30.01,8,1,11,0.01
2013-10-12,87.8,74.8,63.1,69.4,63.5,57.5,96,72,38,30.01,30.01,8,1,11,0.00
2013-10-13,86.5,74.3,62.4,70.2,62.9,56.8,97,71,38,30.01,30.01,8,1,10,0.00
2013-10-14,86.9,72.6,65.1,70.0,65.9,61.1,97,82,44,30.01,30.01,10,1,13,0.02
2013-10-15,82.4,72.5,67.1,71.8,68.5,65.6,97,88,64,30.01,30.01,7,1,9,0.02
2013-10-16,88.7,76.4,68.5,74.8,68.5,62.2,98,79,45,30.01,30.01,8,1,14,0.00
2013-10-17,90.0,77.4,67.1,75.0,68.5,65.1,98,77,46,30.01,30.01,6,1,9,0.01
2013-10-18,90.9,78.9,67.6,74.8,68.6,64.0,97,74,42,30.01,30.01,10,2,13,0.02
2013-10-19,90.7,79.7,69.8,74.8,70.0,65.5,95,75,46,30.01,30.01,10,2,14,0.01
2013-10-20,88.5,82.0,72.5,76.1,72.6,70.5,96,75,60,30.01,30.01,5,0,6,0.00
2013-10-21,88.2,88.2,88.2,72.6,72.6,72.6,60,60,60,30.01,30.01,0,0,6,0.00
2013-10-22,88.2,88.2,88.2,72.6,72.6,72.6,60,60,60,30.01,30.01,0,0,6,0.00
2013-10-23,88.2,83.2,66.7,72.6,66.5,53.3,70,58,36,30.01,30.01,8,1,13,0.09
2013-10-24,73.4,66.6,60.4,58.9,53.6,44.7,91,64,51,30.01,30.01,10,2,14,0.04
2013-10-25,82.4,69.1,58.8,60.9,55.0,47.8,93,66,32,30.01,30.01,8,2,13,0.00
2013-10-26,81.1,67.0,54.5,59.7,53.9,44.9,97,67,29,30.01,30.01,8,1,12,0.00
2013-10-27,81.5,66.9,53.8,61.3,54.8,46.3,98,70,30,30.01,30.01,8,2,12,0.01
2013-10-29,73.8,71.3,68.9,65.5,65.0,63.6,88,81,71,30.01,30.01,4,1,8,0.02
2013-10-30,84.7,74.0,65.3,69.5,65.4,62.6,96,77,48,30.01,30.01,11,2,16,0.01
2013-10-31,87.6,75.2,62.4,72.5,64.6,60.3,98,73,42,30.01,30.01,14,3,20,0.00
2013-11-1,89.4,76.2,65.5,73.8,67.4,61.6,97,77,42,30.01,30.01,15,3,19,0.00
2013-11-2,76.6,69.4,63.1,73.2,66.9,62.0,96,92,81,30.01,30.01,16,2,22,0.09
2013-11-3,78.3,66.5,58.3,62.0,52.6,35.7,99,67,22,30.01,30.01,13,3,17,0.04
2013-11-4,79.7,69.7,60.1,64.6,59.2,52.7,94,70,46,30.01,30.01,17,4,24,0.07
2013-11-5,84.2,73.1,64.6,69.0,66.6,62.8,95,81,54,30.01,30.01,13,4,22,0.01
2013-11-6,83.5,74.2,66.6,70.4,67.4,64.5,93,80,59,30.03,30.01,10,3,15,0.04
2013-11-7,83.5,71.7,63.5,71.5,65.9,62.4,98,84,53,30.01,30.01,6,1,9,0.00
2013-11-8,79.7,69.4,63.9,67.4,62.9,56.9,98,81,59,30.01,30.01,14,3,17,0.00
2013-11-9,81.3,71.4,63.3,65.7,62.2,59.3,89,74,54,30.01,30.01,12,3,17,0.00
2013-11-10,85.1,72.0,63.5,68.3,63.5,60.0,95,77,44,30.01,30.01,10,2,14,0.00
2013-11-11,84.2,72.3,63.9,67.8,64.6,62.3,97,79,50,30.01,30.01,9,2,16,0.01
2013-11-12,80.2,71.1,62.1,70.4,64.7,61.1,99,82,58,30.01,30.01,5,1,8,0.02
2013-11-13,68.5,62.3,53.8,62.9,51.7,48.1,86,69,55,30.01,30.01,16,6,26,0.05
2013-11-14,77.9,63.8,51.6,58.6,53.8,48.8,93,72,42,30.01,30.01,14,3,21,0.00
2013-11-15,77.5,68.3,57.9,65.6,62.0,55.2,94,81,63,30.01,30.01,7,2,10,0.05
2013-11-16,77.5,72.0,68.4,72.0,68.1,65.1,93,88,81,30.01,30.01,9,2,13,0.05
2013-11-17,87.3,76.7,68.4,72.2,68.8,66.0,94,78,52,30.01,30.01,13,3,16,0.00
2013-11-18,86.7,75.8,67.5,72.4,68.5,66.3,97,80,53,30.01,30.01,8,1,11,0.00
2013-11-19,81.3,72.8,65.1,71.5,65.1,59.3,94,78,53,30.01,30.01,8,2,11,0.04
2013-11-20,83.8,71.1,63.5,72.4,67.1,60.8,95,88,62,30.01,30.01,10,3,17,0.04
2013-11-21,83.5,72.8,69.1,71.8,69.7,67.9,97,90,64,30.01,30.01,14,3,19,1.36
2013-11-22,82.4,73.8,69.1,71.6,67.7,64.2,98,82,60,30.01,30.01,13,2,17,0.01
2013-11-23,85.1,73.2,63.5,70.3,65.0,61.9,97,78,47,30.01,30.01,10,1,11,0.00
2013-11-24,72.9,65.9,62.6,66.2,59.3,53.3,96,80,64,30.01,30.01,14,5,21,0.00
2013-11-25,73.4,68.7,65.3,63.3,57.5,53.2,85,68,54,30.01,30.01,14,6,23,0.00
2013-11-26,82.8,74.6,68.0,73.1,69.1,63.3,94,83,67,30.01,30.01,20,6,31,0.13
2013-11-27,74.7,64.2,45.7,72.6,57.2,37.9,95,78,59,30.01,30.01,18,7,31,0.53
2013-11-28,67.6,52.7,39.6,51.4,43.4,33.5,86,72,54,30.01,30.01,10,3,14,0.02
2013-11-29,73.2,61.0,52.7,58.1,53.3,48.8,93,77,56,30.01,30.01,13,4,18,0.01
2013-11-30,82.8,70.1,56.3,73.4,63.9,52.4,95,82,62,30.01,30.01,18,5,24,0.60
2013-12-1,72.7,66.3,61.5,64.9,63.0,59.5,95,89,72,30.01,30.01,8,2,11,0.02
2013-12-2,73.2,65.9,62.1,64.8,59.5,53.6,98,81,53,30.01,30.01,9,2,14,0.02
2013-12-3,79.0,67.3,55.2,63.6,59.0,54.0,97,77,49,30.01,30.01,11,2,14,0.00
2013-12-4,82.9,70.2,61.0,68.9,63.5,59.1,97,81,53,30.01,30.01,11,1,15,0.01
2013-12-5,83.8,72.0,59.5,69.9,64.5,58.7,98,79,52,30.01,30.01,11,2,14,0.00
2013-12-6,85.6,74.0,62.8,73.5,66.8,61.8,98,80,51,30.01,30.01,13,3,16,0.01
2013-12-7,85.1,73.3,62.4,72.3,64.8,60.0,97,77,45,30.01,30.01,7,1,9,0.01
2013-12-8,84.4,73.2,61.5,74.3,65.4,61.0,98,79,49,30.01,30.01,13,2,16,0.01
2013-12-9,83.8,71.6,61.5,72.6,64.8,60.7,98,81,53,30.01,30.01,11,2,14,0.00
2013-12-10,85.1,72.1,57.7,71.9,62.9,57.2,99,75,44,30.01,30.01,12,2,17,0.00
2013-12-11,84.0,71.7,60.1,68.6,63.1,54.6,89,75,54,30.01,30.01,8,2,13,0.00
2013-12-12,71.8,63.2,52.3,64.1,51.0,29.3,96,68,27,30.01,30.01,10,3,14,0.00
2013-12-13,76.1,61.9,48.9,56.9,52.3,42.7,93,72,49,30.01,30.01,14,2,17,0.00
2013-12-14,84.4,72.1,60.6,70.1,65.1,55.9,92,79,55,30.01,30.01,14,4,19,0.00
2013-12-15,74.3,68.8,59.0,70.3,63.1,54.9,94,83,62,30.01,30.01,11,3,18,0.08
2013-12-16,68.0,57.2,45.5,54.9,47.9,41.9,93,73,45,30.01,30.01,8,2,12,0.00
2013-12-17,71.4,61.4,44.4,54.1,49.9,41.9,93,68,53,30.01,30.01,8,2,11,0.00
2013-12-18,72.3,66.2,45.9,53.8,50.4,40.4,94,59,32,30.01,30.01,5,1,8,0.00
2013-12-19,77.2,59.4,40.3,58.1,50.7,39.8,99,76,45,30.01,30.01,10,1,12,0.30
2013-12-20,83.5,67.2,50.5,65.2,57.5,49.7,99,74,44,30.01,30.01,14,3,18,0.00
2013-12-21,86.0,73.2,61.3,70.8,65.9,59.0,97,80,53,30.01,30.01,17,4,24,0.00
2013-12-22,84.9,74.3,66.4,73.0,67.4,65.2,98,81,54,30.01,30.01,18,3,21,0.00
2013-12-23,87.3,74.3,63.9,75.4,67.4,62.4,99,81,46,30.01,30.01,14,2,21,0.00
2013-12-24,72.0,65.1,55.2,69.8,52.5,27.6,97,68,29,30.01,30.01,10,3,17,0.00
2013-12-25,76.5,62.1,55.2,56.3,46.1,36.4,86,57,45,30.01,30.01,11,2,19,0.00
2013-12-26,77.2,65.2,56.7,62.8,58.8,54.8,99,82,55,30.01,30.01,9,3,13,0.00
2013-12-27,72.9,66.4,60.6,65.0,62.0,57.9,93,86,74,30.01,30.01,9,3,12,0.00
2013-12-28,78.4,72.0,65.8,70.3,67.1,63.8,98,85,70,30.01,30.01,13,4,16,0.00
2013-12-29,79.0,72.2,64.0,72.9,69.4,62.8,96,91,77,30.01,30.01,12,4,16,0.12
2013-12-30,68.0,61.8,58.1,62.9,59.5,56.1,98,92,74,30.01,30.01,6,1,9,0.01
2013-12-31,69.1,64.0,57.4,56.6,50.9,46.2,92,65,45,30.01,30.01,8,2,13,0.00
2014-1-1,68.9,65.9,60.1,64.9,53.7,47.9,96,68,47,30.01,30.01,9,2,13,0.05
2014-1-2,82.8,70.0,61.5,71.7,61.2,47.9,99,77,47,30.01,30.01,17,4,22,0.78